sensor_id;sensor_type;location;lat;lon;timestamp;P1;durP1;ratioP1;P2;durP2;ratioP2
1682;SDS011;13252;53.596;10.060;2023-02-04T00:00:26;3.73;;;1.10;;
1682;SDS011;13252;53.596;10.060;2023-02-04T00:02:56;6.40;;;1.10;;
1682;SDS011;13252;53.596;10.060;2023-02-04T00:05:24;5.70;;;1.40;;
1682;SDS011;13252;53.596;10.060;2023-02-04T00:07:52;2.00;;;1.17;;
1682;SDS011;13252;53.596;10.060;2023-02-04T00:10:19;2.07;;;0.90;;
1682;SDS011;13252;53.596;10.060;2023-02-04T00:12:49;3.50;;;1.10;;
1682;SDS011;13252;53.596;10.060;2023-02-04T00:15:16;2.23;;;1.10;;
1682;SDS011;13252;53.596;10.060;2023-02-04T00:17:47;1.73;;;1.00;;
1682;SDS011;13252;53.596;10.060;2023-02-04T00:20:15;3.10;;;1.30;;
1682;SDS011;13252;53.596;10.060;2023-02-04T00:22:44;2.73;;;1.43;;
1682;SDS011;13252;53.596;10.060;2023-02-04T00:25:12;3.70;;;1.20;;
1682;SDS011;13252;53.596;10.060;2023-02-04T00:27:40;2.00;;;1.07;;
1682;SDS011;13252;53.596;10.060;2023-02-04T00:30:10;3.17;;;1.13;;
1682;SDS011;13252;53.596;10.060;2023-02-04T00:32:39;2.80;;;1.23;;
1682;SDS011;13252;53.596;10.060;2023-02-04T00:35:07;3.20;;;1.10;;
1682;SDS011;13252;53.596;10.060;2023-02-04T00:37:35;1.90;;;1.10;;
1682;SDS011;13252;53.596;10.060;2023-02-04T00:40:03;2.77;;;1.10;;
1682;SDS011;13252;53.596;10.060;2023-02-04T00:42:31;3.20;;;1.17;;
1682;SDS011;13252;53.596;10.060;2023-02-04T00:44:58;3.50;;;1.40;;
1682;SDS011;13252;53.596;10.060;2023-02-04T00:47:27;2.30;;;1.20;;
1682;SDS011;13252;53.596;10.060;2023-02-04T00:49:55;4.40;;;1.47;;
1682;SDS011;13252;53.596;10.060;2023-02-04T00:52:23;3.03;;;1.20;;
1682;SDS011;13252;53.596;10.060;2023-02-04T00:54:51;2.73;;;1.50;;
1682;SDS011;13252;53.596;10.060;2023-02-04T00:57:18;2.37;;;1.10;;
1682;SDS011;13252;53.596;10.060;2023-02-04T00:59:46;2.80;;;1.27;;
1682;SDS011;13252;53.596;10.060;2023-02-04T01:02:13;3.50;;;1.60;;
1682;SDS011;13252;53.596;10.060;2023-02-04T01:04:45;2.93;;;1.60;;
1682;SDS011;13252;53.596;10.060;2023-02-04T01:07:12;6.97;;;1.60;;
1682;SDS011;13252;53.596;10.060;2023-02-04T01:09:40;2.43;;;1.33;;
1682;SDS011;13252;53.596;10.060;2023-02-04T01:12:08;4.13;;;1.40;;
1682;SDS011;13252;53.596;10.060;2023-02-04T01:14:35;4.10;;;3.70;;
1682;SDS011;13252;53.596;10.060;2023-02-04T01:17:04;4.53;;;2.20;;
1682;SDS011;13252;53.596;10.060;2023-02-04T01:19:31;3.17;;;1.60;;
1682;SDS011;13252;53.596;10.060;2023-02-04T01:22:00;4.17;;;1.50;;
1682;SDS011;13252;53.596;10.060;2023-02-04T01:24:28;4.40;;;1.57;;
1682;SDS011;13252;53.596;10.060;2023-02-04T01:27:14;4.63;;;1.50;;
1682;SDS011;13252;53.596;10.060;2023-02-04T01:29:41;4.10;;;1.50;;
1682;SDS011;13252;53.596;10.060;2023-02-04T01:32:09;3.20;;;1.43;;
1682;SDS011;13252;53.596;10.060;2023-02-04T01:34:37;8.80;;;1.60;;
1682;SDS011;13252;53.596;10.060;2023-02-04T01:37:06;4.87;;;1.80;;
1682;SDS011;13252;53.596;10.060;2023-02-04T01:39:33;3.80;;;1.67;;
1682;SDS011;13252;53.596;10.060;2023-02-04T01:42:02;3.47;;;1.30;;
1682;SDS011;13252;53.596;10.060;2023-02-04T01:44:30;6.30;;;1.73;;
1682;SDS011;13252;53.596;10.060;2023-02-04T01:46:57;5.27;;;1.70;;
1682;SDS011;13252;53.596;10.060;2023-02-04T01:49:25;6.50;;;1.43;;
1682;SDS011;13252;53.596;10.060;2023-02-04T01:51:53;4.30;;;1.63;;
1682;SDS011;13252;53.596;10.060;2023-02-04T01:54:23;4.50;;;2.13;;
1682;SDS011;13252;53.596;10.060;2023-02-04T01:56:52;2.30;;;1.50;;
1682;SDS011;13252;53.596;10.060;2023-02-04T01:59:22;3.07;;;1.57;;
1682;SDS011;13252;53.596;10.060;2023-02-04T02:01:52;7.33;;;4.20;;
1682;SDS011;13252;53.596;10.060;2023-02-04T02:04:22;8.90;;;5.27;;
1682;SDS011;13252;53.596;10.060;2023-02-04T02:06:53;3.43;;;1.77;;
1682;SDS011;13252;53.596;10.060;2023-02-04T02:09:25;2.20;;;1.30;;
1682;SDS011;13252;53.596;10.060;2023-02-04T02:11:53;5.20;;;1.37;;
1682;SDS011;13252;53.596;10.060;2023-02-04T02:14:21;2.73;;;1.40;;
1682;SDS011;13252;53.596;10.060;2023-02-04T02:16:49;3.90;;;1.57;;
1682;SDS011;13252;53.596;10.060;2023-02-04T02:19:19;3.70;;;1.43;;
1682;SDS011;13252;53.596;10.060;2023-02-04T02:21:53;5.00;;;1.17;;
1682;SDS011;13252;53.596;10.060;2023-02-04T02:24:26;2.70;;;1.70;;
1682;SDS011;13252;53.596;10.060;2023-02-04T02:26:55;4.43;;;2.33;;
1682;SDS011;13252;53.596;10.060;2023-02-04T02:29:24;2.87;;;1.40;;
1682;SDS011;13252;53.596;10.060;2023-02-04T02:31:52;5.23;;;1.70;;
1682;SDS011;13252;53.596;10.060;2023-02-04T02:34:24;5.10;;;2.20;;
1682;SDS011;13252;53.596;10.060;2023-02-04T02:36:52;3.63;;;1.57;;
1682;SDS011;13252;53.596;10.060;2023-02-04T02:39:22;3.13;;;1.63;;
1682;SDS011;13252;53.596;10.060;2023-02-04T02:41:51;4.67;;;1.70;;
1682;SDS011;13252;53.596;10.060;2023-02-04T02:44:18;3.87;;;1.60;;
1682;SDS011;13252;53.596;10.060;2023-02-04T02:46:47;4.37;;;1.90;;
1682;SDS011;13252;53.596;10.060;2023-02-04T02:49:17;4.67;;;1.90;;
1682;SDS011;13252;53.596;10.060;2023-02-04T02:51:46;5.57;;;1.80;;
1682;SDS011;13252;53.596;10.060;2023-02-04T02:54:17;3.00;;;2.30;;
1682;SDS011;13252;53.596;10.060;2023-02-04T02:56:48;3.40;;;1.70;;
1682;SDS011;13252;53.596;10.060;2023-02-04T02:59:22;5.63;;;2.00;;
1682;SDS011;13252;53.596;10.060;2023-02-04T03:01:50;4.73;;;2.40;;
1682;SDS011;13252;53.596;10.060;2023-02-04T03:04:21;5.70;;;2.20;;
1682;SDS011;13252;53.596;10.060;2023-02-04T03:06:50;6.70;;;2.03;;
1682;SDS011;13252;53.596;10.060;2023-02-04T03:09:18;3.00;;;1.80;;
1682;SDS011;13252;53.596;10.060;2023-02-04T03:11:47;3.30;;;2.20;;
1682;SDS011;13252;53.596;10.060;2023-02-04T03:14:16;3.90;;;2.00;;
1682;SDS011;13252;53.596;10.060;2023-02-04T03:16:44;3.30;;;2.60;;
1682;SDS011;13252;53.596;10.060;2023-02-04T03:19:12;3.70;;;2.17;;
1682;SDS011;13252;53.596;10.060;2023-02-04T03:21:41;8.20;;;3.37;;
1682;SDS011;13252;53.596;10.060;2023-02-04T03:24:09;4.67;;;2.53;;
1682;SDS011;13252;53.596;10.060;2023-02-04T03:26:37;3.50;;;2.50;;
1682;SDS011;13252;53.596;10.060;2023-02-04T03:29:05;4.87;;;2.23;;
1682;SDS011;13252;53.596;10.060;2023-02-04T03:31:35;7.43;;;3.07;;
1682;SDS011;13252;53.596;10.060;2023-02-04T03:34:04;4.17;;;2.43;;
1682;SDS011;13252;53.596;10.060;2023-02-04T03:36:32;5.00;;;2.50;;
1682;SDS011;13252;53.596;10.060;2023-02-04T03:39:00;3.40;;;2.43;;
1682;SDS011;13252;53.596;10.060;2023-02-04T03:41:27;6.90;;;2.40;;
1682;SDS011;13252;53.596;10.060;2023-02-04T03:43:55;3.20;;;2.17;;
1682;SDS011;13252;53.596;10.060;2023-02-04T03:46:23;3.47;;;2.07;;
1682;SDS011;13252;53.596;10.060;2023-02-04T03:48:52;5.83;;;2.60;;
1682;SDS011;13252;53.596;10.060;2023-02-04T03:51:20;3.67;;;2.30;;
1682;SDS011;13252;53.596;10.060;2023-02-04T03:53:47;4.90;;;3.13;;
1682;SDS011;13252;53.596;10.060;2023-02-04T03:56:15;6.33;;;3.47;;
1682;SDS011;13252;53.596;10.060;2023-02-04T03:58:43;5.97;;;2.20;;
1682;SDS011;13252;53.596;10.060;2023-02-04T04:01:13;6.00;;;3.20;;
1682;SDS011;13252;53.596;10.060;2023-02-04T04:03:41;6.90;;;3.73;;
1682;SDS011;13252;53.596;10.060;2023-02-04T04:06:10;4.57;;;3.90;;
1682;SDS011;13252;53.596;10.060;2023-02-04T04:08:37;4.60;;;2.70;;
1682;SDS011;13252;53.596;10.060;2023-02-04T04:11:05;6.70;;;3.07;;
1682;SDS011;13252;53.596;10.060;2023-02-04T04:13:33;4.37;;;2.70;;
1682;SDS011;13252;53.596;10.060;2023-02-04T04:16:01;3.40;;;2.47;;
1682;SDS011;13252;53.596;10.060;2023-02-04T04:18:30;3.43;;;2.30;;
1682;SDS011;13252;53.596;10.060;2023-02-04T04:20:58;3.53;;;2.43;;
1682;SDS011;13252;53.596;10.060;2023-02-04T04:23:27;15.87;;;3.30;;
1682;SDS011;13252;53.596;10.060;2023-02-04T04:25:55;5.83;;;2.63;;
1682;SDS011;13252;53.596;10.060;2023-02-04T04:28:22;4.67;;;2.73;;
1682;SDS011;13252;53.596;10.060;2023-02-04T04:30:50;3.97;;;2.00;;
1682;SDS011;13252;53.596;10.060;2023-02-04T04:33:18;7.00;;;2.80;;
1682;SDS011;13252;53.596;10.060;2023-02-04T04:35:45;3.50;;;1.87;;
1682;SDS011;13252;53.596;10.060;2023-02-04T04:38:13;3.33;;;2.07;;
1682;SDS011;13252;53.596;10.060;2023-02-04T04:40:42;4.77;;;2.03;;
1682;SDS011;13252;53.596;10.060;2023-02-04T04:43:10;3.27;;;2.00;;
1682;SDS011;13252;53.596;10.060;2023-02-04T04:45:37;5.63;;;3.13;;
1682;SDS011;13252;53.596;10.060;2023-02-04T04:48:05;4.83;;;2.80;;
1682;SDS011;13252;53.596;10.060;2023-02-04T04:50:32;7.10;;;2.63;;
1682;SDS011;13252;53.596;10.060;2023-02-04T04:53:03;5.70;;;2.33;;
1682;SDS011;13252;53.596;10.060;2023-02-04T04:55:31;5.60;;;2.50;;
1682;SDS011;13252;53.596;10.060;2023-02-04T04:58:00;4.27;;;2.70;;
1682;SDS011;13252;53.596;10.060;2023-02-04T05:00:28;6.83;;;2.73;;
1682;SDS011;13252;53.596;10.060;2023-02-04T05:02:56;4.33;;;2.47;;
1682;SDS011;13252;53.596;10.060;2023-02-04T05:05:24;5.20;;;3.13;;
1682;SDS011;13252;53.596;10.060;2023-02-04T05:07:52;7.20;;;3.23;;
1682;SDS011;13252;53.596;10.060;2023-02-04T05:10:19;6.90;;;3.23;;
1682;SDS011;13252;53.596;10.060;2023-02-04T05:12:47;6.57;;;2.60;;
1682;SDS011;13252;53.596;10.060;2023-02-04T05:15:16;4.10;;;2.80;;
1682;SDS011;13252;53.596;10.060;2023-02-04T05:17:44;6.53;;;3.67;;
1682;SDS011;13252;53.596;10.060;2023-02-04T05:20:11;5.10;;;2.77;;
1682;SDS011;13252;53.596;10.060;2023-02-04T05:22:39;4.43;;;2.83;;
1682;SDS011;13252;53.596;10.060;2023-02-04T05:25:07;4.77;;;2.57;;
1682;SDS011;13252;53.596;10.060;2023-02-04T05:27:35;4.77;;;3.23;;
1682;SDS011;13252;53.596;10.060;2023-02-04T05:30:02;6.33;;;3.60;;
1682;SDS011;13252;53.596;10.060;2023-02-04T05:32:32;4.00;;;2.80;;
1682;SDS011;13252;53.596;10.060;2023-02-04T05:34:59;6.07;;;2.87;;
1682;SDS011;13252;53.596;10.060;2023-02-04T05:37:27;5.53;;;2.97;;
1682;SDS011;13252;53.596;10.060;2023-02-04T05:39:54;4.90;;;2.77;;
1682;SDS011;13252;53.596;10.060;2023-02-04T05:42:22;6.77;;;2.87;;
1682;SDS011;13252;53.596;10.060;2023-02-04T05:44:50;6.17;;;3.37;;
1682;SDS011;13252;53.596;10.060;2023-02-04T05:47:17;4.23;;;3.03;;
1682;SDS011;13252;53.596;10.060;2023-02-04T05:49:47;3.60;;;2.97;;
1682;SDS011;13252;53.596;10.060;2023-02-04T05:52:15;3.67;;;2.90;;
1682;SDS011;13252;53.596;10.060;2023-02-04T05:54:42;5.17;;;3.00;;
1682;SDS011;13252;53.596;10.060;2023-02-04T05:57:10;8.20;;;3.33;;
1682;SDS011;13252;53.596;10.060;2023-02-04T05:59:38;4.43;;;2.93;;
1682;SDS011;13252;53.596;10.060;2023-02-04T06:02:05;9.67;;;3.80;;
1682;SDS011;13252;53.596;10.060;2023-02-04T06:04:33;6.13;;;3.40;;
1682;SDS011;13252;53.596;10.060;2023-02-04T06:07:02;7.50;;;3.40;;
1682;SDS011;13252;53.596;10.060;2023-02-04T06:09:30;5.03;;;3.13;;
1682;SDS011;13252;53.596;10.060;2023-02-04T06:11:57;8.03;;;3.60;;
1682;SDS011;13252;53.596;10.060;2023-02-04T06:14:25;6.07;;;3.70;;
1682;SDS011;13252;53.596;10.060;2023-02-04T06:16:52;5.20;;;3.73;;
1682;SDS011;13252;53.596;10.060;2023-02-04T06:19:20;4.93;;;3.23;;
1682;SDS011;13252;53.596;10.060;2023-02-04T06:21:48;4.80;;;3.40;;
1682;SDS011;13252;53.596;10.060;2023-02-04T06:24:17;5.17;;;3.50;;
1682;SDS011;13252;53.596;10.060;2023-02-04T06:26:44;5.37;;;3.60;;
1682;SDS011;13252;53.596;10.060;2023-02-04T06:29:12;9.00;;;4.50;;
1682;SDS011;13252;53.596;10.060;2023-02-04T06:31:40;8.20;;;5.57;;
1682;SDS011;13252;53.596;10.060;2023-02-04T06:34:07;6.90;;;5.07;;
1682;SDS011;13252;53.596;10.060;2023-02-04T06:36:35;7.27;;;4.40;;
1682;SDS011;13252;53.596;10.060;2023-02-04T06:39:02;7.43;;;4.07;;
1682;SDS011;13252;53.596;10.060;2023-02-04T06:41:31;8.17;;;5.40;;
1682;SDS011;13252;53.596;10.060;2023-02-04T06:43:59;7.60;;;5.03;;
1682;SDS011;13252;53.596;10.060;2023-02-04T06:46:27;7.20;;;5.10;;
1682;SDS011;13252;53.596;10.060;2023-02-04T06:48:54;8.63;;;5.73;;
1682;SDS011;13252;53.596;10.060;2023-02-04T06:51:22;8.30;;;5.23;;
1682;SDS011;13252;53.596;10.060;2023-02-04T06:53:50;5.50;;;4.53;;
1682;SDS011;13252;53.596;10.060;2023-02-04T06:56:17;10.10;;;5.33;;
1682;SDS011;13252;53.596;10.060;2023-02-04T06:58:46;8.63;;;5.30;;
1682;SDS011;13252;53.596;10.060;2023-02-04T07:01:14;7.30;;;4.83;;
1682;SDS011;13252;53.596;10.060;2023-02-04T07:03:42;7.73;;;4.70;;
1682;SDS011;13252;53.596;10.060;2023-02-04T07:06:09;6.37;;;4.97;;
1682;SDS011;13252;53.596;10.060;2023-02-04T07:08:37;7.37;;;5.53;;
1682;SDS011;13252;53.596;10.060;2023-02-04T07:11:04;7.47;;;4.97;;
1682;SDS011;13252;53.596;10.060;2023-02-04T07:13:32;8.93;;;5.10;;
1682;SDS011;13252;53.596;10.060;2023-02-04T07:16:01;9.03;;;5.27;;
1682;SDS011;13252;53.596;10.060;2023-02-04T07:18:29;8.57;;;5.73;;
1682;SDS011;13252;53.596;10.060;2023-02-04T07:20:56;10.40;;;8.17;;
1682;SDS011;13252;53.596;10.060;2023-02-04T07:23:24;10.67;;;9.40;;
1682;SDS011;13252;53.596;10.060;2023-02-04T07:25:53;8.63;;;6.23;;
1682;SDS011;13252;53.596;10.060;2023-02-04T07:28:21;7.33;;;4.93;;
1682;SDS011;13252;53.596;10.060;2023-02-04T07:30:49;9.80;;;5.03;;
1682;SDS011;13252;53.596;10.060;2023-02-04T07:33:18;8.80;;;5.20;;
1682;SDS011;13252;53.596;10.060;2023-02-04T07:35:45;8.97;;;5.00;;
1682;SDS011;13252;53.596;10.060;2023-02-04T07:38:13;7.03;;;5.10;;
1682;SDS011;13252;53.596;10.060;2023-02-04T07:40:41;7.80;;;4.83;;
1682;SDS011;13252;53.596;10.060;2023-02-04T07:43:09;6.67;;;5.10;;
1682;SDS011;13252;53.596;10.060;2023-02-04T07:45:37;8.17;;;5.63;;
1682;SDS011;13252;53.596;10.060;2023-02-04T07:48:04;12.00;;;7.13;;
1682;SDS011;13252;53.596;10.060;2023-02-04T07:50:33;7.40;;;5.40;;
1682;SDS011;13252;53.596;10.060;2023-02-04T07:53:01;18.90;;;11.73;;
1682;SDS011;13252;53.596;10.060;2023-02-04T07:55:30;7.10;;;5.93;;
1682;SDS011;13252;53.596;10.060;2023-02-04T07:57:57;13.80;;;7.20;;
1682;SDS011;13252;53.596;10.060;2023-02-04T08:00:25;8.60;;;5.90;;
1682;SDS011;13252;53.596;10.060;2023-02-04T08:02:52;7.77;;;6.80;;
1682;SDS011;13252;53.596;10.060;2023-02-04T08:05:20;13.20;;;6.53;;
1682;SDS011;13252;53.596;10.060;2023-02-04T08:07:49;10.60;;;6.30;;
1682;SDS011;13252;53.596;10.060;2023-02-04T08:10:17;7.80;;;5.80;;
1682;SDS011;13252;53.596;10.060;2023-02-04T08:12:46;7.33;;;5.10;;
1682;SDS011;13252;53.596;10.060;2023-02-04T08:15:14;6.63;;;5.87;;
1682;SDS011;13252;53.596;10.060;2023-02-04T08:17:41;10.77;;;6.43;;
1682;SDS011;13252;53.596;10.060;2023-02-04T08:20:10;7.83;;;5.27;;
1682;SDS011;13252;53.596;10.060;2023-02-04T08:22:38;7.50;;;4.93;;
1682;SDS011;13252;53.596;10.060;2023-02-04T08:25:08;12.63;;;5.90;;
1682;SDS011;13252;53.596;10.060;2023-02-04T08:27:36;8.33;;;5.27;;
1682;SDS011;13252;53.596;10.060;2023-02-04T08:30:05;7.90;;;5.30;;
1682;SDS011;13252;53.596;10.060;2023-02-04T08:32:33;9.40;;;5.00;;
1682;SDS011;13252;53.596;10.060;2023-02-04T08:35:01;12.27;;;5.27;;
1682;SDS011;13252;53.596;10.060;2023-02-04T08:37:31;8.97;;;5.10;;
1682;SDS011;13252;53.596;10.060;2023-02-04T08:39:59;9.13;;;4.93;;
1682;SDS011;13252;53.596;10.060;2023-02-04T08:42:28;6.93;;;4.67;;
1682;SDS011;13252;53.596;10.060;2023-02-04T08:44:56;10.73;;;4.70;;
1682;SDS011;13252;53.596;10.060;2023-02-04T08:47:23;5.93;;;5.00;;
1682;SDS011;13252;53.596;10.060;2023-02-04T08:49:51;5.03;;;4.00;;
1682;SDS011;13252;53.596;10.060;2023-02-04T08:52:19;9.00;;;5.10;;
1682;SDS011;13252;53.596;10.060;2023-02-04T08:54:48;7.97;;;5.33;;
1682;SDS011;13252;53.596;10.060;2023-02-04T08:57:16;4.80;;;4.17;;
1682;SDS011;13252;53.596;10.060;2023-02-04T08:59:45;6.73;;;3.63;;
1682;SDS011;13252;53.596;10.060;2023-02-04T09:02:12;6.10;;;4.00;;
1682;SDS011;13252;53.596;10.060;2023-02-04T09:04:40;4.47;;;3.43;;
1682;SDS011;13252;53.596;10.060;2023-02-04T09:07:08;10.73;;;4.00;;
1682;SDS011;13252;53.596;10.060;2023-02-04T09:09:36;5.77;;;3.00;;
1682;SDS011;13252;53.596;10.060;2023-02-04T09:12:03;4.83;;;3.17;;
1682;SDS011;13252;53.596;10.060;2023-02-04T09:14:31;10.13;;;2.60;;
1682;SDS011;13252;53.596;10.060;2023-02-04T09:17:00;8.57;;;3.30;;
1682;SDS011;13252;53.596;10.060;2023-02-04T09:19:28;5.20;;;2.80;;
1682;SDS011;13252;53.596;10.060;2023-02-04T09:21:55;7.60;;;2.73;;
1682;SDS011;13252;53.596;10.060;2023-02-04T09:24:23;4.80;;;3.17;;
1682;SDS011;13252;53.596;10.060;2023-02-04T09:26:51;5.67;;;2.53;;
1682;SDS011;13252;53.596;10.060;2023-02-04T09:29:18;4.93;;;2.57;;
1682;SDS011;13252;53.596;10.060;2023-02-04T09:31:46;4.03;;;2.83;;
1682;SDS011;13252;53.596;10.060;2023-02-04T09:34:15;6.17;;;3.13;;
1682;SDS011;13252;53.596;10.060;2023-02-04T09:36:43;8.50;;;2.60;;
1682;SDS011;13252;53.596;10.060;2023-02-04T09:39:10;6.60;;;2.97;;
1682;SDS011;13252;53.596;10.060;2023-02-04T09:41:38;5.37;;;2.77;;
1682;SDS011;13252;53.596;10.060;2023-02-04T09:44:09;4.53;;;3.00;;
1682;SDS011;13252;53.596;10.060;2023-02-04T09:46:39;4.20;;;2.50;;
1682;SDS011;13252;53.596;10.060;2023-02-04T09:49:08;3.77;;;2.60;;
1682;SDS011;13252;53.596;10.060;2023-02-04T09:51:38;5.10;;;2.73;;
1682;SDS011;13252;53.596;10.060;2023-02-04T09:54:06;4.57;;;2.37;;
1682;SDS011;13252;53.596;10.060;2023-02-04T09:56:38;5.47;;;2.27;;
1682;SDS011;13252;53.596;10.060;2023-02-04T09:59:09;5.30;;;1.60;;
1682;SDS011;13252;53.596;10.060;2023-02-04T10:01:37;2.90;;;1.70;;
1682;SDS011;13252;53.596;10.060;2023-02-04T10:04:07;2.87;;;1.33;;
1682;SDS011;13252;53.596;10.060;2023-02-04T10:06:38;4.10;;;1.90;;
1682;SDS011;13252;53.596;10.060;2023-02-04T10:09:07;3.73;;;1.70;;
1682;SDS011;13252;53.596;10.060;2023-02-04T10:11:36;3.30;;;2.17;;
1682;SDS011;13252;53.596;10.060;2023-02-04T10:14:05;3.70;;;2.43;;
1682;SDS011;13252;53.596;10.060;2023-02-04T10:16:33;8.63;;;3.93;;
1682;SDS011;13252;53.596;10.060;2023-02-04T10:19:03;3.70;;;1.87;;
1682;SDS011;13252;53.596;10.060;2023-02-04T10:21:33;4.73;;;1.97;;
1682;SDS011;13252;53.596;10.060;2023-02-04T10:24:04;4.43;;;1.70;;
1682;SDS011;13252;53.596;10.060;2023-02-04T10:26:36;4.67;;;1.93;;
1682;SDS011;13252;53.596;10.060;2023-02-04T10:29:05;6.00;;;1.33;;
1682;SDS011;13252;53.596;10.060;2023-02-04T10:31:36;2.90;;;1.60;;
1682;SDS011;13252;53.596;10.060;2023-02-04T10:34:06;2.90;;;1.60;;
1682;SDS011;13252;53.596;10.060;2023-02-04T10:36:37;6.37;;;1.93;;
1682;SDS011;13252;53.596;10.060;2023-02-04T10:39:09;3.70;;;1.60;;
1682;SDS011;13252;53.596;10.060;2023-02-04T10:41:43;5.37;;;2.00;;
1682;SDS011;13252;53.596;10.060;2023-02-04T10:44:15;4.80;;;2.53;;
1682;SDS011;13252;53.596;10.060;2023-02-04T10:46:44;2.73;;;1.80;;
1682;SDS011;13252;53.596;10.060;2023-02-04T10:49:18;8.60;;;2.27;;
1682;SDS011;13252;53.596;10.060;2023-02-04T10:51:48;3.87;;;2.17;;
1682;SDS011;13252;53.596;10.060;2023-02-04T10:54:18;4.10;;;1.60;;
1682;SDS011;13252;53.596;10.060;2023-02-04T10:56:55;4.37;;;1.93;;
1682;SDS011;13252;53.596;10.060;2023-02-04T10:59:23;3.63;;;1.80;;
1682;SDS011;13252;53.596;10.060;2023-02-04T11:01:53;3.47;;;2.13;;
1682;SDS011;13252;53.596;10.060;2023-02-04T11:04:22;5.77;;;1.90;;
1682;SDS011;13252;53.596;10.060;2023-02-04T11:06:49;6.50;;;2.90;;
1682;SDS011;13252;53.596;10.060;2023-02-04T11:09:19;5.87;;;2.10;;
1682;SDS011;13252;53.596;10.060;2023-02-04T11:11:48;7.80;;;2.50;;
1682;SDS011;13252;53.596;10.060;2023-02-04T11:14:20;4.53;;;1.80;;
1682;SDS011;13252;53.596;10.060;2023-02-04T11:16:49;3.47;;;1.70;;
1682;SDS011;13252;53.596;10.060;2023-02-04T11:19:28;3.43;;;1.87;;
1682;SDS011;13252;53.596;10.060;2023-02-04T11:22:03;3.73;;;1.60;;
1682;SDS011;13252;53.596;10.060;2023-02-04T11:24:46;3.90;;;1.80;;
1682;SDS011;13252;53.596;10.060;2023-02-04T11:27:19;4.90;;;2.37;;
1682;SDS011;13252;53.596;10.060;2023-02-04T11:29:49;3.87;;;1.70;;
1682;SDS011;13252;53.596;10.060;2023-02-04T11:32:27;4.70;;;2.30;;
1682;SDS011;13252;53.596;10.060;2023-02-04T11:35:20;3.33;;;1.67;;
1682;SDS011;13252;53.596;10.060;2023-02-04T11:37:51;3.80;;;2.37;;
1682;SDS011;13252;53.596;10.060;2023-02-04T11:40:24;4.93;;;1.90;;
1682;SDS011;13252;53.596;10.060;2023-02-04T11:42:57;3.30;;;1.80;;
1682;SDS011;13252;53.596;10.060;2023-02-04T11:45:27;3.40;;;1.73;;
1682;SDS011;13252;53.596;10.060;2023-02-04T11:47:57;3.00;;;1.47;;
1682;SDS011;13252;53.596;10.060;2023-02-04T11:50:27;6.70;;;2.33;;
1682;SDS011;13252;53.596;10.060;2023-02-04T11:52:56;3.80;;;2.17;;
1682;SDS011;13252;53.596;10.060;2023-02-04T11:55:28;5.40;;;1.50;;
1682;SDS011;13252;53.596;10.060;2023-02-04T11:57:57;2.53;;;1.57;;
1682;SDS011;13252;53.596;10.060;2023-02-04T12:00:26;2.93;;;1.33;;
1682;SDS011;13252;53.596;10.060;2023-02-04T12:02:56;3.30;;;1.70;;
1682;SDS011;13252;53.596;10.060;2023-02-04T12:05:34;2.10;;;1.23;;
1682;SDS011;13252;53.596;10.060;2023-02-04T12:08:10;3.87;;;1.80;;
1682;SDS011;13252;53.596;10.060;2023-02-04T12:10:46;3.73;;;1.57;;
1682;SDS011;13252;53.596;10.060;2023-02-04T12:13:20;2.40;;;1.27;;
1682;SDS011;13252;53.596;10.060;2023-02-04T12:15:53;3.53;;;1.70;;
1682;SDS011;13252;53.596;10.060;2023-02-04T12:18:24;6.10;;;2.40;;
1682;SDS011;13252;53.596;10.060;2023-02-04T12:20:53;3.50;;;1.63;;
1682;SDS011;13252;53.596;10.060;2023-02-04T12:23:20;4.60;;;1.53;;
1682;SDS011;13252;53.596;10.060;2023-02-04T12:25:50;4.60;;;1.90;;
1682;SDS011;13252;53.596;10.060;2023-02-04T12:28:17;4.23;;;2.00;;
1682;SDS011;13252;53.596;10.060;2023-02-04T12:30:45;3.33;;;1.43;;
1682;SDS011;13252;53.596;10.060;2023-02-04T12:33:13;5.03;;;2.83;;
1682;SDS011;13252;53.596;10.060;2023-02-04T12:35:41;3.07;;;1.70;;
1682;SDS011;13252;53.596;10.060;2023-02-04T12:38:09;3.03;;;1.47;;
1682;SDS011;13252;53.596;10.060;2023-02-04T12:40:37;4.53;;;2.07;;
1682;SDS011;13252;53.596;10.060;2023-02-04T12:43:06;3.10;;;1.70;;
1682;SDS011;13252;53.596;10.060;2023-02-04T12:45:34;4.47;;;2.13;;
1682;SDS011;13252;53.596;10.060;2023-02-04T12:48:03;7.97;;;2.10;;
1682;SDS011;13252;53.596;10.060;2023-02-04T12:50:30;4.50;;;2.00;;
1682;SDS011;13252;53.596;10.060;2023-02-04T12:52:58;2.47;;;1.63;;
1682;SDS011;13252;53.596;10.060;2023-02-04T12:55:26;5.80;;;1.77;;
1682;SDS011;13252;53.596;10.060;2023-02-04T12:57:55;2.80;;;1.63;;
1682;SDS011;13252;53.596;10.060;2023-02-04T13:00:26;7.30;;;1.63;;
1682;SDS011;13252;53.596;10.060;2023-02-04T13:02:55;4.00;;;2.10;;
1682;SDS011;13252;53.596;10.060;2023-02-04T13:05:24;3.80;;;1.50;;
1682;SDS011;13252;53.596;10.060;2023-02-04T13:07:52;3.40;;;1.63;;
1682;SDS011;13252;53.596;10.060;2023-02-04T13:10:20;4.50;;;1.63;;
1682;SDS011;13252;53.596;10.060;2023-02-04T13:12:49;6.23;;;1.40;;
1682;SDS011;13252;53.596;10.060;2023-02-04T13:15:17;2.73;;;1.10;;
1682;SDS011;13252;53.596;10.060;2023-02-04T13:17:46;2.67;;;1.50;;
1682;SDS011;13252;53.596;10.060;2023-02-04T13:20:14;3.67;;;1.37;;
1682;SDS011;13252;53.596;10.060;2023-02-04T13:22:41;3.40;;;1.47;;
1682;SDS011;13252;53.596;10.060;2023-02-04T13:25:09;4.83;;;1.43;;
1682;SDS011;13252;53.596;10.060;2023-02-04T13:27:37;4.43;;;1.53;;
1682;SDS011;13252;53.596;10.060;2023-02-04T13:30:06;5.90;;;1.40;;
1682;SDS011;13252;53.596;10.060;2023-02-04T13:32:34;5.27;;;1.60;;
1682;SDS011;13252;53.596;10.060;2023-02-04T13:35:04;2.77;;;1.37;;
1682;SDS011;13252;53.596;10.060;2023-02-04T13:37:32;2.33;;;1.40;;
1682;SDS011;13252;53.596;10.060;2023-02-04T13:39:59;3.60;;;2.03;;
1682;SDS011;13252;53.596;10.060;2023-02-04T13:42:27;3.37;;;2.03;;
1682;SDS011;13252;53.596;10.060;2023-02-04T13:44:55;2.50;;;1.20;;
1682;SDS011;13252;53.596;10.060;2023-02-04T13:47:22;2.53;;;1.40;;
1682;SDS011;13252;53.596;10.060;2023-02-04T13:49:50;2.47;;;1.07;;
1682;SDS011;13252;53.596;10.060;2023-02-04T13:52:19;2.73;;;1.03;;
1682;SDS011;13252;53.596;10.060;2023-02-04T13:54:47;2.30;;;1.10;;
1682;SDS011;13252;53.596;10.060;2023-02-04T13:57:14;2.03;;;1.17;;
1682;SDS011;13252;53.596;10.060;2023-02-04T13:59:42;3.20;;;1.50;;
1682;SDS011;13252;53.596;10.060;2023-02-04T14:02:10;2.67;;;1.33;;
1682;SDS011;13252;53.596;10.060;2023-02-04T14:04:38;3.70;;;1.67;;
1682;SDS011;13252;53.596;10.060;2023-02-04T14:07:09;2.80;;;1.10;;
1682;SDS011;13252;53.596;10.060;2023-02-04T14:09:37;2.50;;;1.20;;
1682;SDS011;13252;53.596;10.060;2023-02-04T14:12:07;2.27;;;1.23;;
1682;SDS011;13252;53.596;10.060;2023-02-04T14:14:35;2.40;;;1.47;;
1682;SDS011;13252;53.596;10.060;2023-02-04T14:17:02;7.10;;;1.60;;
1682;SDS011;13252;53.596;10.060;2023-02-04T14:19:30;2.50;;;1.60;;
1682;SDS011;13252;53.596;10.060;2023-02-04T14:21:58;3.60;;;1.43;;
1682;SDS011;13252;53.596;10.060;2023-02-04T14:24:25;2.50;;;1.20;;
1682;SDS011;13252;53.596;10.060;2023-02-04T14:26:54;3.20;;;1.00;;
1682;SDS011;13252;53.596;10.060;2023-02-04T14:29:22;3.30;;;1.23;;
1682;SDS011;13252;53.596;10.060;2023-02-04T14:31:49;4.10;;;1.20;;
1682;SDS011;13252;53.596;10.060;2023-02-04T14:34:17;9.40;;;2.60;;
1682;SDS011;13252;53.596;10.060;2023-02-04T14:36:45;10.70;;;2.50;;
1682;SDS011;13252;53.596;10.060;2023-02-04T14:39:25;4.40;;;1.90;;
1682;SDS011;13252;53.596;10.060;2023-02-04T14:41:52;3.20;;;1.50;;
1682;SDS011;13252;53.596;10.060;2023-02-04T14:44:21;8.43;;;2.33;;
1682;SDS011;13252;53.596;10.060;2023-02-04T14:46:49;7.17;;;2.77;;
1682;SDS011;13252;53.596;10.060;2023-02-04T14:49:17;4.37;;;2.17;;
1682;SDS011;13252;53.596;10.060;2023-02-04T14:51:44;4.77;;;2.20;;
1682;SDS011;13252;53.596;10.060;2023-02-04T14:54:12;4.93;;;2.30;;
1682;SDS011;13252;53.596;10.060;2023-02-04T14:56:41;4.00;;;2.27;;